Time;durP1;ratioP1;P1;durP2;ratioP2;P2;SDS_P1;SDS_P2;PMS_P1;PMS_P2;Temp;Humidity;BMP_temperature;BMP_pressure;BME280_temperature;BME280_humidity;BME280_pressure;Samples;Min_cycle;Max_cycle;Signal;HPM_P1;HPM_P2
2023/12/17 00:00:32;;;;;;;31.57;19.07;;;;;;;5.44;64.20;101494.31;1665033;86;21848;-89
2023/12/17 00:03:38;;;;;;;30.08;18.10;;;;;;;5.79;62.64;101482.67;1664922;86;21290;-89
2023/12/17 00:06:44;;;;;;;29.60;16.93;;;;;;;5.62;63.13;101475.80;1664400;86;21349;-89
2023/12/17 00:09:51;;;;;;;31.77;17.42;;;;;;;5.12;64.60;101477.70;1665129;86;21847;-89
2023/12/17 00:12:58;;;;;;;24.95;15.93;;;;;;;5.44;64.20;101473.11;1665013;86;21322;-89
2023/12/17 00:16:04;;;;;;;28.15;15.60;;;;;;;5.27;64.10;101474.34;1664856;86;21288;-89
2023/12/17 00:19:11;;;;;;;31.80;18.02;;;;;;;5.66;63.37;101470.51;1664455;86;21290;-89
2023/12/17 00:22:18;;;;;;;29.80;16.25;;;;;;;5.55;63.97;101458.22;1671953;86;21294;-89
2023/12/17 00:25:24;;;;;;;30.62;17.90;;;;;;;5.73;63.66;101462.25;1672484;86;21317;-88
2023/12/17 00:28:31;;;;;;;32.65;18.20;;;;;;;5.57;63.90;101463.06;1671732;86;21306;-89
2023/12/17 00:31:38;;;;;;;27.15;17.45;;;;;;;5.67;63.90;101455.95;1652176;86;21290;-88
2023/12/17 00:34:45;;;;;;;28.75;17.10;;;;;;;6.12;62.60;101450.22;1671948;86;21282;-89
2023/12/17 00:37:53;;;;;;;31.70;18.95;;;;;;;5.78;63.33;101451.05;1672332;86;21321;-89
2023/12/17 00:40:59;;;;;;;29.25;16.77;;;;;;;5.90;63.37;101453.69;1672203;86;21262;-89
2023/12/17 00:43:59;;;;;;;36.90;20.97;;;;;;;5.85;63.90;101446.89;1671226;86;21863;-89
2023/12/17 00:47:04;;;;;;;38.13;20.65;;;;;;;5.92;63.52;101445.95;1672279;86;21295;-89
2023/12/17 00:50:21;;;;;;;31.95;18.40;;;;;;;6.02;63.36;101453.75;1566877;84;21362;-88
2023/12/17 00:53:36;;;;;;;32.03;18.70;;;;;;;5.93;64.20;101455.35;1662081;86;21349;-89
2023/12/17 00:56:45;;;;;;;35.40;20.30;;;;;;;6.08;63.57;101454.66;1662810;86;21856;-88
2023/12/17 00:59:53;;;;;;;34.03;20.10;;;;;;;6.15;63.67;101456.75;1662911;86;22375;-88
2023/12/17 01:02:59;;;;;;;36.23;21.45;;;;;;;6.23;63.90;101445.78;1662131;86;21350;-89
2023/12/17 01:06:07;;;;;;;32.00;20.95;;;;;;;6.39;63.59;101442.22;1663289;86;21375;-89
2023/12/17 01:09:13;;;;;;;38.10;21.62;;;;;;;6.42;63.34;101445.20;1662449;86;21358;-89
2023/12/17 01:12:20;;;;;;;45.15;23.40;;;;;;;6.27;63.81;101448.64;1662256;86;21331;-88
2023/12/17 01:15:39;;;;;;;38.07;23.17;;;;;;;6.33;63.68;101446.29;1663803;86;21887;-89
2023/12/17 01:18:46;;;;;;;35.63;20.08;;;;;;;6.32;63.75;101444.56;1663098;86;21346;-87
2023/12/17 01:21:52;;;;;;;39.85;23.65;;;;;;;6.34;63.69;101443.08;1661415;86;21370;-89
2023/12/17 01:25:00;;;;;;;38.75;23.18;;;;;;;6.47;63.27;101442.98;1658840;86;21851;-89
2023/12/17 01:28:09;;;;;;;35.95;22.48;;;;;;;6.52;63.05;101436.67;1657555;86;21318;-89
2023/12/17 01:31:17;;;;;;;37.78;22.65;;;;;;;6.52;62.71;101434.82;1658873;86;21306;-89
2023/12/17 01:34:23;;;;;;;42.45;23.38;;;;;;;6.49;62.84;101427.40;1657336;86;21338;-89
2023/12/17 01:37:30;;;;;;;41.35;23.80;;;;;;;6.43;62.79;101423.33;1657986;86;21910;-89
2023/12/17 01:40:39;;;;;;;39.98;24.67;;;;;;;6.19;64.09;101416.63;1658761;86;21886;-89
2023/12/17 01:43:46;;;;;;;41.60;24.30;;;;;;;6.26;64.56;101417.89;1658333;86;21883;-89
2023/12/17 01:46:53;;;;;;;40.60;25.00;;;;;;;6.64;63.55;101422.11;1658717;86;21297;-89
2023/12/17 01:50:03;;;;;;;43.13;23.25;;;;;;;6.53;63.82;101415.30;1657641;86;21374;-90
2023/12/17 01:53:10;;;;;;;39.05;22.67;;;;;;;6.82;62.93;101412.46;1657841;86;21219;-89
2023/12/17 01:56:16;;;;;;;41.20;22.95;;;;;;;6.56;63.80;101416.42;1657436;86;21216;-89
2023/12/17 01:59:22;;;;;;;44.93;25.40;;;;;;;6.73;63.30;101415.03;1657647;86;21426;-89
2023/12/17 02:02:28;;;;;;;43.25;25.00;;;;;;;6.39;63.99;101421.34;1658683;86;21315;-89
2023/12/17 02:05:35;;;;;;;46.08;24.85;;;;;;;6.55;63.62;101425.57;1658817;86;21322;-89
2023/12/17 02:08:43;;;;;;;46.00;25.50;;;;;;;6.39;64.20;101424.05;1657574;86;21255;-88
2023/12/17 02:11:49;;;;;;;40.83;24.98;;;;;;;6.70;63.50;101427.05;1658659;86;21291;-88
2023/12/17 02:14:58;;;;;;;44.05;25.35;;;;;;;6.99;62.41;101426.52;1657219;86;21564;-88
2023/12/17 02:18:05;;;;;;;47.73;25.65;;;;;;;7.15;61.85;101431.05;1658439;86;21223;-88
2023/12/17 02:21:12;;;;;;;48.70;27.75;;;;;;;7.02;62.36;101433.08;1658848;86;21229;-88
2023/12/17 02:24:18;;;;;;;55.85;30.02;;;;;;;6.78;63.29;101432.73;1657787;86;21314;-88
2023/12/17 02:27:32;;;;;;;48.87;27.85;;;;;;;6.75;63.16;101428.89;1658732;86;21323;-88
2023/12/17 02:30:38;;;;;;;40.95;24.20;;;;;;;6.70;63.52;101436.56;1659017;86;21224;-88
2023/12/17 02:33:46;;;;;;;44.13;25.60;;;;;;;6.64;63.67;101435.70;1658793;86;21323;-88
2023/12/17 02:36:53;;;;;;;46.77;27.22;;;;;;;6.50;63.97;101426.44;1658646;86;21224;-89
2023/12/17 02:40:00;;;;;;;46.13;27.02;;;;;;;6.21;64.93;101430.98;1658374;86;21192;-88
2023/12/17 02:43:13;;;;;;;52.30;27.73;;;;;;;6.55;64.50;101433.23;1658965;86;21374;-88
2023/12/17 02:46:20;;;;;;;46.40;26.23;;;;;;;6.51;64.37;101434.95;1658759;86;21302;-88
2023/12/17 02:49:26;;;;;;;50.15;26.70;;;;;;;6.57;64.04;101424.94;1657777;86;21817;-88
2023/12/17 02:52:32;;;;;;;51.80;26.15;;;;;;;6.74;63.73;101432.61;1658937;86;21307;-88
2023/12/17 02:55:39;;;;;;;48.38;25.60;;;;;;;6.80;63.53;101433.45;1658698;86;21222;-88
2023/12/17 02:58:47;;;;;;;47.35;26.00;;;;;;;6.71;63.97;101441.50;1659011;86;21228;-88
2023/12/17 03:01:53;;;;;;;48.33;27.25;;;;;;;6.35;65.13;101437.55;1659115;86;21303;-88
2023/12/17 03:04:59;;;;;;;48.63;27.10;;;;;;;6.06;66.32;101431.66;1659097;86;21307;-89
2023/12/17 03:08:06;;;;;;;42.80;24.57;;;;;;;6.44;65.53;101431.84;1658913;86;21291;-88
2023/12/17 03:11:12;;;;;;;47.20;24.47;;;;;;;6.50;64.99;101433.23;1659022;86;21235;-88
2023/12/17 03:14:20;;;;;;;45.78;25.45;;;;;;;6.27;66.00;101433.70;1658992;86;21346;-89
2023/12/17 03:17:26;;;;;;;46.85;25.85;;;;;;;6.27;66.04;101427.77;1658344;86;21307;-88
2023/12/17 03:20:39;;;;;;;47.20;25.88;;;;;;;6.29;66.09;101436.65;1658946;86;21832;-88
2023/12/17 03:23:45;;;;;;;49.93;27.80;;;;;;;6.47;65.69;101442.98;1658936;86;21216;-88
2023/12/17 03:26:52;;;;;;;48.00;26.05;;;;;;;6.78;64.76;101434.59;1659119;86;21307;-88
2023/12/17 03:29:59;;;;;;;44.90;24.85;;;;;;;6.50;65.20;101438.67;1658979;86;21224;-89
2023/12/17 03:33:05;;;;;;;42.55;24.52;;;;;;;6.42;66.06;101435.69;1639708;86;21326;-88
2023/12/17 03:36:13;;;;;;;41.95;23.83;;;;;;;6.10;66.81;101437.73;1656993;86;21899;-88
2023/12/17 03:39:19;;;;;;;45.17;26.25;;;;;;;6.34;66.44;101441.22;1656987;86;21303;-88
2023/12/17 03:42:26;;;;;;;48.02;26.10;;;;;;;6.52;66.06;101447.55;1657078;86;21299;-88
2023/12/17 03:45:33;;;;;;;39.23;22.82;;;;;;;6.48;65.92;101448.28;1656765;86;21324;-88
2023/12/17 03:48:41;;;;;;;47.40;26.02;;;;;;;6.78;65.21;101439.53;1656245;86;21331;-88
2023/12/17 03:51:47;;;;;;;40.28;21.62;;;;;;;6.54;65.94;101451.00;1655651;86;21350;-88
2023/12/17 03:54:54;;;;;;;48.52;25.48;;;;;;;6.62;65.71;101453.48;1656052;86;21951;-88
2023/12/17 03:58:01;;;;;;;43.20;24.92;;;;;;;6.85;65.17;101452.98;1655715;86;21212;-88
2023/12/17 04:01:07;;;;;;;45.40;25.37;;;;;;;6.94;64.83;101447.80;1657073;86;21315;-88
2023/12/17 04:04:13;;;;;;;40.05;22.70;;;;;;;6.83;65.30;101449.54;1657042;86;21331;-88
2023/12/17 04:07:30;;;;;;;44.77;26.77;;;;;;;6.88;65.10;101443.23;1664684;86;21303;-89
2023/12/17 04:10:37;;;;;;;46.58;25.60;;;;;;;7.04;64.81;101442.83;1669008;86;21867;-88
2023/12/17 04:13:44;;;;;;;52.40;27.87;;;;;;;7.11;64.82;101441.84;1668739;86;21314;-88
2023/12/17 04:16:50;;;;;;;52.35;29.07;;;;;;;7.00;64.91;101437.77;1692843;85;21300;-88
2023/12/17 04:19:57;;;;;;;51.40;28.77;;;;;;;6.90;65.16;101441.23;1692828;85;21291;-89
2023/12/17 04:23:02;;;;;;;54.50;30.25;;;;;;;7.00;65.27;101437.27;1692480;85;22309;-89
2023/12/17 04:26:08;;;;;;;51.58;28.42;;;;;;;7.05;65.18;101433.67;1716744;83;21868;-88
2023/12/17 04:29:14;;;;;;;46.15;25.50;;;;;;;6.92;65.45;101428.89;1722235;83;21401;-88
2023/12/17 04:32:21;;;;;;;47.33;28.40;;;;;;;6.94;65.57;101428.75;1721932;83;21323;-88
2023/12/17 04:35:30;;;;;;;50.98;29.57;;;;;;;6.88;65.55;101435.56;1723305;83;21286;-88
2023/12/17 04:38:36;;;;;;;51.20;29.00;;;;;;;7.03;65.43;101438.88;1704438;83;21330;-89
2023/12/17 04:41:44;;;;;;;47.98;27.05;;;;;;;7.17;64.98;101440.83;1722684;83;21298;-89
2023/12/17 04:44:45;;;;;;;43.52;25.02;;;;;;;6.87;65.53;101441.50;1723486;83;21294;-88
2023/12/17 04:47:38;;;;;;;41.55;23.87;;;;;;;6.86;65.53;101437.03;1723321;83;21846;-89
2023/12/17 04:50:45;;;;;;;58.23;31.35;;;;;;;6.62;65.73;101436.30;1723430;83;21327;-89
2023/12/17 04:53:52;;;;;;;46.70;26.97;;;;;;;7.05;65.12;101434.17;1723607;83;21302;-88
2023/12/17 04:56:58;;;;;;;48.30;27.65;;;;;;;6.54;66.37;101437.41;1723408;83;21294;-88
2023/12/17 05:00:05;;;;;;;45.58;27.32;;;;;;;6.76;66.02;101431.97;1723612;83;21295;-88
2023/12/17 05:03:12;;;;;;;44.83;25.62;;;;;;;6.72;66.39;101432.34;1723663;83;21330;-89
2023/12/17 05:06:19;;;;;;;38.90;22.80;;;;;;;7.16;65.04;101439.61;1723451;83;21855;-89
2023/12/17 05:09:24;;;;;;;33.95;20.12;;;;;;;6.91;65.42;101444.31;1723475;83;21203;-88
2023/12/17 05:12:31;;;;;;;35.95;21.65;;;;;;;7.03;65.09;101438.88;1723440;82;21248;-89
2023/12/17 05:15:38;;;;;;;37.25;21.30;;;;;;;6.78;65.58;101437.31;1722883;83;21732;-88
2023/12/17 05:18:44;;;;;;;34.48;22.07;;;;;;;6.86;65.55;101426.65;1723367;83;21211;-88
2023/12/17 05:21:54;;;;;;;34.95;23.12;;;;;;;6.89;65.55;101424.55;1723157;83;21188;-89
2023/12/17 05:25:00;;;;;;;33.05;21.37;;;;;;;7.03;65.00;101429.36;1723508;83;21184;-89
2023/12/17 05:28:09;;;;;;;35.13;21.50;;;;;;;6.89;65.91;101424.55;1695436;84;21315;-88
2023/12/17 05:31:14;;;;;;;39.48;22.85;;;;;;;6.98;65.22;101429.73;1664101;86;21378;-89
2023/12/17 05:34:21;;;;;;;37.73;21.30;;;;;;;7.18;64.55;101431.67;1664352;86;21744;-89
2023/12/17 05:37:27;;;;;;;40.38;20.30;;;;;;;6.91;65.19;101429.86;1664253;86;21307;-89
2023/12/17 05:40:34;;;;;;;39.20;22.32;;;;;;;7.02;65.29;101440.74;1664449;86;21346;-88
2023/12/17 05:43:41;;;;;;;39.18;21.57;;;;;;;7.16;64.72;101439.11;1664280;86;21628;-89
2023/12/17 05:46:47;;;;;;;39.18;22.25;;;;;;;7.22;64.53;101449.98;1664413;86;21315;-89
2023/12/17 05:49:54;;;;;;;37.30;23.00;;;;;;;7.20;64.38;101442.45;1664399;85;21859;-88
2023/12/17 05:53:01;;;;;;;38.20;20.60;;;;;;;7.51;63.98;101452.12;1668208;86;22103;-88
2023/12/17 05:56:07;;;;;;;41.02;24.45;;;;;;;7.66;63.19;101455.77;1717925;83;21834;-88
2023/12/17 05:59:13;;;;;;;43.50;24.60;;;;;;;7.45;63.46;101458.09;1718102;83;21283;-88
2023/12/17 06:02:20;;;;;;;42.85;25.70;;;;;;;7.50;63.43;101458.56;1718257;83;21269;-89
2023/12/17 06:05:26;;;;;;;38.83;23.07;;;;;;;7.36;63.81;101461.08;1717580;83;21255;-88
2023/12/17 06:08:32;;;;;;;43.13;22.35;;;;;;;7.71;63.25;101461.33;1716490;83;21306;-89
2023/12/17 06:11:38;;;;;;;40.85;22.93;;;;;;;7.56;63.52;101460.77;1716918;83;21319;-89
2023/12/17 06:14:44;;;;;;;42.27;25.02;;;;;;;7.54;63.94;101465.48;1717143;83;21375;-88
2023/12/17 06:17:50;;;;;;;38.20;23.87;;;;;;;7.60;63.48;101466.33;1717203;83;21347;-88
2023/12/17 06:21:01;;;;;;;46.85;28.00;;;;;;;7.50;64.06;101475.77;1717534;83;21982;-88
2023/12/17 06:24:08;;;;;;;39.95;24.27;;;;;;;7.35;64.06;101475.19;1717301;83;21310;-89
2023/12/17 06:27:22;;;;;;;45.28;26.12;;;;;;;7.54;63.95;101464.98;1696028;83;21848;-89
2023/12/17 06:30:30;;;;;;;39.33;22.17;;;;;;;7.48;64.18;101467.34;1700783;83;21828;-89
2023/12/17 06:33:37;;;;;;;40.23;24.15;;;;;;;7.28;64.12;101460.34;1715759;83;21299;-89
2023/12/17 06:36:43;;;;;;;39.08;22.80;;;;;;;7.30;64.67;101455.66;1716272;83;21298;-89
2023/12/17 06:39:42;;;;;;;38.17;22.42;;;;;;;7.62;63.96;101450.70;1716529;83;21329;-88
2023/12/17 06:42:49;;;;;;;41.08;23.42;;;;;;;7.57;64.19;101446.16;1716384;83;21352;-89
2023/12/17 06:45:55;;;;;;;38.98;22.00;;;;;;;7.70;63.86;101445.48;1716566;83;21316;-89
2023/12/17 06:49:02;;;;;;;40.60;23.10;;;;;;;7.58;64.06;101439.23;1716406;83;21331;-88
2023/12/17 06:52:09;;;;;;;41.45;23.80;;;;;;;7.02;65.47;101438.02;1716448;83;21844;-89
2023/12/17 06:55:17;;;;;;;40.92;24.23;;;;;;;7.18;65.07;101438.97;1716626;83;21291;-89
2023/12/17 06:58:23;;;;;;;38.08;22.98;;;;;;;7.08;65.27;101436.15;1715699;83;21291;-88
2023/12/17 07:01:30;;;;;;;40.25;23.90;;;;;;;7.33;64.76;101442.27;1716290;83;21287;-90
2023/12/17 07:04:36;;;;;;;40.80;23.95;;;;;;;7.37;64.82;101446.47;1715334;83;21322;-89
2023/12/17 07:07:41;;;;;;;38.85;22.55;;;;;;;7.25;64.79;101451.59;1716698;83;21313;-88
2023/12/17 11:54:30;;;;;;;26.93;16.50;;;;;;;9.19;61.23;101206.22;1704913;84;21773;-89
2023/12/17 11:57:38;;;;;;;25.88;15.00;;;;;;;9.40;60.17;101192.38;1707097;84;21315;-89
2023/12/17 12:00:46;;;;;;;25.68;15.25;;;;;;;9.65;59.23;101187.30;1706625;84;21323;-89
2023/12/17 12:03:55;;;;;;;28.55;16.45;;;;;;;9.14;60.47;101188.56;1706487;84;21247;-89
2023/12/17 12:07:02;;;;;;;27.35;16.10;;;;;;;9.31;60.45;101191.89;1706949;84;21840;-90
2023/12/17 12:10:04;;;;;;;27.93;15.75;;;;;;;9.36;59.96;101183.25;1707332;84;21287;-88
2023/12/17 12:13:40;;;;;;;26.95;16.15;;;;;;;9.19;60.10;101184.89;1669978;79;21192;-89
2023/12/17 12:16:49;;;;;;;26.60;15.70;;;;;;;9.01;60.57;101182.53;1753981;81;21278;-90
2023/12/17 12:19:57;;;;;;;30.60;16.95;;;;;;;9.04;60.70;101175.44;1741514;82;21256;-90
2023/12/17 12:23:06;;;;;;;26.33;15.98;;;;;;;9.14;60.08;101167.58;1741345;82;21298;-90
2023/12/17 12:26:13;;;;;;;28.07;15.60;;;;;;;9.26;59.78;101169.63;1741201;82;21836;-89
2023/12/17 12:29:20;;;;;;;30.43;16.85;;;;;;;9.10;59.78;101163.92;1740889;82;21762;-89
2023/12/17 12:32:42;;;;;;;29.70;16.87;;;;;;;9.00;60.12;101160.36;1741042;82;21260;-90
2023/12/17 12:35:50;;;;;;;33.35;18.80;;;;;;;9.02;60.48;101167.38;1741205;82;21303;-88
2023/12/17 12:39:16;;;;;;;35.20;19.55;;;;;;;8.86;60.99;101165.24;1725049;82;21357;-89
2023/12/17 12:42:24;;;;;;;36.30;19.57;;;;;;;8.83;61.05;101160.57;1740851;82;21275;-89
2023/12/17 12:45:31;;;;;;;32.53;19.07;;;;;;;8.74;61.16;101153.25;1741227;82;21264;-89
2023/12/17 12:48:39;;;;;;;31.87;18.20;;;;;;;8.78;61.17;101147.88;1741261;82;21852;-90
2023/12/17 12:51:47;;;;;;;37.05;19.23;;;;;;;8.68;61.56;101146.00;1741020;82;21275;-89
2023/12/17 12:54:54;;;;;;;32.25;17.98;;;;;;;8.56;62.16;101140.83;1722967;82;21844;-88
2023/12/17 12:58:02;;;;;;;36.10;19.50;;;;;;;8.84;61.53;101142.68;1740441;82;21816;-89
2023/12/17 13:01:10;;;;;;;31.33;17.40;;;;;;;8.94;61.30;101144.92;1741037;82;21808;-90
2023/12/17 13:04:17;;;;;;;29.60;17.32;;;;;;;8.73;61.89;101144.72;1739784;82;21862;-90
2023/12/17 13:07:25;;;;;;;36.70;18.25;;;;;;;8.74;62.14;101145.06;1740943;82;21303;-87
2023/12/17 13:10:32;;;;;;;33.50;17.27;;;;;;;8.26;63.86;101149.95;1741303;82;21856;-88
2023/12/17 13:13:39;;;;;;;29.70;17.73;;;;;;;8.58;63.22;101151.11;1741200;80;21263;-87
2023/12/17 13:16:46;;;;;;;34.48;18.25;;;;;;;8.82;62.55;101150.16;1778872;80;21279;-88
2023/12/17 13:19:52;;;;;;;28.20;17.48;;;;;;;8.86;62.32;101153.47;1756165;80;21742;-88
2023/12/17 13:23:07;;;;;;;28.38;16.67;;;;;;;8.55;62.90;101150.02;1778397;80;21266;-90
2023/12/17 13:26:20;;;;;;;37.55;18.90;;;;;;;8.81;62.66;101146.23;1778913;80;21766;-89
2023/12/17 13:29:33;;;;;;;34.27;18.25;;;;;;;8.73;63.10;101145.57;1770451;80;21184;-89
2023/12/17 13:32:47;;;;;;;31.87;18.35;;;;;;;8.53;63.49;101141.99;1778765;80;21266;-89
2023/12/17 13:35:57;;;;;;;30.82;17.20;;;;;;;8.51;63.73;101137.67;1776614;80;21192;-90
2023/12/17 13:39:09;;;;;;;30.43;15.93;;;;;;;8.16;65.09;101134.45;1778949;80;21271;-88
2023/12/17 13:42:16;;;;;;;35.48;18.42;;;;;;;8.09;65.51;101124.24;1777785;80;21444;-89
2023/12/17 13:45:25;;;;;;;27.80;16.25;;;;;;;8.08;65.74;101124.75;1755529;80;21259;-88
2023/12/17 13:48:49;;;;;;;;;;;;;;;;;;;;;
2023/12/17 13:52:01;;;;;;;32.58;16.17;;;;;;;8.27;65.38;101123.91;1656109;85;21899;-88
2023/12/17 13:55:09;;;;;;;36.58;18.90;;;;;;;8.18;66.04;101122.89;1654098;85;21243;-89
2023/12/17 13:58:17;;;;;;;31.45;18.65;;;;;;;8.51;64.88;101117.22;1656390;86;21906;-90
2023/12/17 14:01:29;;;;;;;28.50;16.70;;;;;;;8.55;64.73;101114.57;1656661;86;21315;-88
2023/12/17 14:04:37;;;;;;;31.95;17.15;;;;;;;8.77;63.96;101118.87;1656069;86;21954;-89
2023/12/17 14:07:42;;;;;;;31.77;17.55;;;;;;;9.00;63.49;101112.60;1655887;86;21993;-89
2023/12/17 14:10:57;;;;;;;26.12;16.52;;;;;;;8.78;63.97;101114.63;1778750;80;21239;-86
2023/12/17 14:14:08;;;;;;;33.40;17.43;;;;;;;8.90;63.90;101114.84;1779209;80;21236;-89
2023/12/17 14:17:17;;;;;;;31.00;16.75;;;;;;;8.69;64.53;101115.50;1751860;82;21308;-88
2023/12/17 14:20:25;;;;;;;;;;;;;;;8.86;64.31;101116.64;1754563;82;21298;-89
2023/12/17 14:23:31;;;;;;;27.35;15.45;;;;;;;8.20;66.00;101111.37;1751638;82;20256;-88
2023/12/17 14:26:37;;;;;;;23.22;14.65;;;;;;;8.44;65.73;101114.22;1751639;82;21276;-87
2023/12/17 14:29:46;;;;;;;26.07;14.95;;;;;;;8.50;65.78;101107.33;1746293;81;21792;-87
2023/12/17 14:32:53;;;;;;;26.75;14.30;;;;;;;8.53;66.04;101107.05;1751179;81;21188;-87
2023/12/17 14:36:00;;;;;;;23.67;15.05;;;;;;;8.82;65.21;101109.24;1751493;80;21753;-89
2023/12/17 14:39:09;;;;;;;26.00;14.53;;;;;;;8.71;65.45;101108.05;1753511;82;21208;-89
2023/12/17 14:42:16;;;;;;;23.18;14.15;;;;;;;8.91;65.02;101101.55;1709141;80;21093;-86
2023/12/17 14:45:26;;;;;;;21.33;13.00;;;;;;;9.07;64.16;101095.98;1753744;82;21247;-88
2023/12/17 14:49:03;;;;;;;25.75;14.33;;;;;;;8.93;64.45;101103.61;1732047;82;21200;-87
2023/12/17 14:52:10;;;;;;;23.15;13.68;;;;;;;9.26;63.67;101106.84;1753528;82;21161;-89
2023/12/17 14:55:16;;;;;;;23.87;13.90;;;;;;;9.37;63.51;101108.05;1753651;82;21168;-88
2023/12/17 14:58:23;;;;;;;24.67;14.25;;;;;;;9.65;62.33;101105.34;1753655;81;21232;-88
2023/12/17 15:01:31;;;;;;;24.67;13.83;;;;;;;9.70;61.96;101108.48;1753439;82;22019;-88
2023/12/17 15:04:39;;;;;;;23.50;13.50;;;;;;;9.58;62.96;101098.75;1753714;81;21195;-87
2023/12/17 15:07:44;;;;;;;23.07;13.48;;;;;;;9.79;62.25;101106.20;1753642;82;21203;-89
2023/12/17 15:10:51;;;;;;;25.37;13.55;;;;;;;9.85;61.79;101103.37;1753667;82;21224;-88
2023/12/17 15:13:59;;;;;;;26.15;14.73;;;;;;;9.71;62.15;101097.91;1753592;82;21196;-87
2023/12/17 15:17:07;;;;;;;22.25;13.68;;;;;;;9.53;62.65;101094.25;1743176;82;21308;-87
2023/12/17 15:20:14;;;;;;;26.68;14.90;;;;;;;9.56;62.53;101093.95;1737480;82;21288;-87
2023/12/17 15:23:22;;;;;;;26.95;13.40;;;;;;;9.68;62.38;101095.46;1642471;86;21383;-88
2023/12/17 15:26:29;;;;;;;21.75;13.83;;;;;;;9.43;63.07;101092.42;1647529;86;21875;-89
2023/12/17 15:29:36;;;;;;;23.98;12.95;;;;;;;9.48;62.75;101088.73;1645257;86;21249;-87
2023/12/17 15:32:43;;;;;;;26.85;13.90;;;;;;;9.58;62.82;101090.56;1644986;86;21862;-87
2023/12/17 15:35:50;;;;;;;27.00;13.22;;;;;;;9.78;61.99;101096.27;1645873;87;21350;-87
2023/12/17 15:38:57;;;;;;;22.52;14.20;;;;;;;9.52;62.73;101098.00;1645705;86;21342;-88
2023/12/17 15:42:03;;;;;;;33.45;14.73;;;;;;;9.55;62.84;101099.93;1646196;87;21302;-89
2023/12/17 15:45:13;;;;;;;22.70;13.30;;;;;;;9.42;63.24;101096.16;1646431;87;21883;-89
2023/12/17 15:48:20;;;;;;;21.12;12.15;;;;;;;9.35;63.38;101096.39;1646262;86;21342;-88
2023/12/17 15:51:28;;;;;;;27.98;13.53;;;;;;;9.41;63.55;101097.66;1646358;87;21302;-88
2023/12/17 15:54:36;;;;;;;22.07;12.33;;;;;;;9.48;63.16;101098.28;1645144;86;21381;-89
2023/12/17 15:57:43;;;;;;;24.82;12.55;;;;;;;9.08;64.34;101096.33;1645205;86;21338;-88
2023/12/17 16:00:53;;;;;;;18.42;11.53;;;;;;;9.12;64.64;101097.76;1646683;87;21879;-89
2023/12/17 16:04:00;;;;;;;21.40;10.93;;;;;;;9.13;64.30;101099.50;1646614;86;21852;-88
2023/12/17 16:07:07;;;;;;;22.60;12.47;;;;;;;9.33;63.54;101087.50;1646401;87;21322;-89
2023/12/17 16:10:14;;;;;;;20.70;11.03;;;;;;;9.39;63.53;101093.72;1646600;87;21839;-88
2023/12/17 16:13:22;;;;;;;23.05;11.57;;;;;;;9.55;62.83;101087.64;1646507;86;21365;-88
2023/12/17 16:16:30;;;;;;;18.48;10.30;;;;;;;9.51;63.35;101091.68;1646281;86;21880;-88
2023/12/17 16:19:36;;;;;;;20.45;11.10;;;;;;;9.68;62.23;101085.91;1646619;86;21175;-88
2023/12/17 16:22:43;;;;;;;25.43;12.60;;;;;;;9.72;62.68;101090.91;1646654;86;21307;-89
2023/12/17 16:25:50;;;;;;;19.02;10.72;;;;;;;9.46;62.91;101090.77;1646772;87;21461;-89
2023/12/17 16:28:57;;;;;;;19.23;10.60;;;;;;;9.94;62.22;101089.65;1650206;85;21332;-89
2023/12/17 16:32:04;;;;;;;19.87;11.60;;;;;;;9.86;62.10;101079.98;1650320;87;21921;-90
2023/12/17 16:35:15;;;;;;;19.52;11.22;;;;;;;9.94;62.06;101085.55;1636214;88;21298;-89
2023/12/17 16:38:21;;;;;;;16.95;10.53;;;;;;;9.51;62.81;101086.72;1648397;85;21335;-89
2023/12/17 16:41:28;;;;;;;17.48;9.65;;;;;;;9.45;63.23;101090.38;1635693;88;21350;-89
2023/12/17 16:44:34;;;;;;;21.48;11.38;;;;;;;9.82;61.75;101089.48;1648650;85;21343;-89
2023/12/17 16:47:40;;;;;;;17.12;11.10;;;;;;;9.83;62.07;101084.37;1635226;86;21306;-88
2023/12/17 16:50:47;;;;;;;21.45;12.43;;;;;;;9.81;61.47;101085.05;1649811;87;21346;-88
2023/12/17 16:53:55;;;;;;;20.50;11.05;;;;;;;9.98;61.13;101083.38;1634997;86;21318;-88
2023/12/17 16:57:01;;;;;;;22.73;10.72;;;;;;;9.29;62.57;101082.49;1649853;87;21370;-89
2023/12/17 17:00:15;;;;;;;19.07;10.65;;;;;;;9.73;62.33;101076.23;1857931;76;22183;-90
2023/12/17 17:03:22;;;;;;;22.10;11.80;;;;;;;9.70;62.18;101070.23;1751165;82;21910;-88
2023/12/17 17:06:29;;;;;;;21.25;11.90;;;;;;;9.48;62.38;101068.25;1736990;82;21292;-89
2023/12/17 17:09:36;;;;;;;16.52;9.20;;;;;;;9.68;62.27;101073.61;1750358;82;21298;-90
2023/12/17 17:12:42;;;;;;;23.73;11.95;;;;;;;9.64;62.12;101065.36;1750429;82;21887;-89
2023/12/17 17:15:49;;;;;;;14.93;10.40;;;;;;;10.17;60.75;101068.71;1736887;82;21289;-88
2023/12/17 17:18:56;;;;;;;19.30;10.43;;;;;;;10.06;61.11;101068.41;1750123;82;21350;-87
2023/12/17 17:22:03;;;;;;;18.73;11.10;;;;;;;10.26;60.57;101074.65;1736633;82;21320;-89
2023/12/17 17:25:09;;;;;;;18.90;10.43;;;;;;;10.48;59.83;101063.21;1750702;82;21326;-89
2023/12/17 17:28:17;;;;;;;21.60;10.55;;;;;;;9.64;62.12;101064.84;1736031;81;21319;-88
2023/12/17 17:31:23;;;;;;;20.55;11.53;;;;;;;9.26;63.61;101071.35;1750310;82;21903;-87
2023/12/17 17:34:32;;;;;;;16.23;10.78;;;;;;;9.84;62.24;101075.19;1735189;82;21705;-88
2023/12/17 17:37:40;;;;;;;24.87;12.07;;;;;;;9.11;64.09;101069.61;1750581;82;21939;-90
2023/12/17 17:40:47;;;;;;;19.37;10.08;;;;;;;9.87;62.39;101063.93;1736590;82;21290;-88
2023/12/17 17:43:55;;;;;;;18.30;11.30;;;;;;;9.79;62.37;101060.27;1749186;82;21376;-88
2023/12/17 17:47:02;;;;;;;19.45;10.70;;;;;;;9.65;62.41;101063.86;1736695;82;21315;-88
2023/12/17 17:50:10;;;;;;;19.60;10.82;;;;;;;9.23;64.15;101061.26;1749827;82;21275;-88
2023/12/17 17:53:17;;;;;;;18.07;10.70;;;;;;;9.30;63.86;101055.03;1736475;82;21304;-88
2023/12/17 17:56:25;;;;;;;18.10;10.53;;;;;;;9.34;63.95;101047.41;1751104;82;21306;-89
2023/12/17 17:59:31;;;;;;;19.05;10.18;;;;;;;9.24;64.23;101054.27;1731690;81;21419;-90
2023/12/17 18:02:39;;;;;;;20.70;11.40;;;;;;;9.04;64.96;101044.45;1742876;82;21271;-88
2023/12/17 18:05:46;;;;;;;19.55;10.38;;;;;;;8.98;65.10;101045.88;1726013;83;21288;-89
2023/12/17 18:08:53;;;;;;;19.25;10.98;;;;;;;9.27;64.17;101044.44;1742016;82;21902;-90
2023/12/17 18:12:03;;;;;;;21.30;9.98;;;;;;;9.59;63.12;101043.96;1724776;83;21351;-88
2023/12/17 18:15:10;;;;;;;17.57;9.43;;;;;;;9.55;63.04;101036.23;1741762;82;21315;-88
2023/12/17 18:18:17;;;;;;;14.23;9.48;;;;;;;9.41;63.60;101039.84;1741467;82;21302;-90
2023/12/17 18:21:25;;;;;;;14.60;9.43;;;;;;;9.33;63.97;101043.82;1742160;82;21827;-89
2023/12/17 18:24:33;;;;;;;18.60;10.08;;;;;;;9.19;64.50;101036.13;1717455;82;21349;-89
2023/12/17 18:27:40;;;;;;;18.70;9.40;;;;;;;9.38;64.05;101037.40;1725980;83;21312;-89
2023/12/17 18:30:47;;;;;;;15.80;9.15;;;;;;;9.66;63.04;101038.77;1741031;82;21326;-90
2023/12/17 18:33:54;;;;;;;16.75;9.30;;;;;;;9.60;62.96;101039.39;1741170;82;21322;-90
2023/12/17 18:37:01;;;;;;;15.55;8.68;;;;;;;9.28;63.83;101040.69;1741074;82;21353;-89
2023/12/17 18:40:09;;;;;;;16.73;9.63;;;;;;;9.31;64.34;101026.71;1740801;82;21370;-88
2023/12/17 18:43:15;;;;;;;16.75;9.73;;;;;;;9.69;63.30;101020.69;1740882;82;21310;-88
2023/12/17 18:46:23;;;;;;;14.45;9.00;;;;;;;9.64;63.20;101021.66;1740835;82;21331;-90
2023/12/17 18:49:29;;;;;;;13.68;8.43;;;;;;;9.61;63.43;101028.81;1742879;82;21295;-89
2023/12/17 18:52:36;;;;;;;12.73;8.43;;;;;;;9.43;63.64;101027.39;1742370;82;21287;-89
2023/12/17 18:55:43;;;;;;;13.78;8.30;;;;;;;9.64;63.90;101027.12;1742769;82;21268;-89
2023/12/17 18:58:49;;;;;;;15.78;9.53;;;;;;;9.55;63.99;101031.65;1742690;82;21286;-89
2023/12/17 19:01:56;;;;;;;17.40;9.10;;;;;;;9.45;63.94;101030.31;1740825;82;21300;-90
2023/12/17 19:05:04;;;;;;;14.98;8.93;;;;;;;9.66;63.45;101024.60;1742522;82;21302;-88
2023/12/17 19:08:12;;;;;;;13.40;8.55;;;;;;;9.62;63.57;101023.70;1742087;82;21306;-88